Time;durP1;ratioP1;P1;durP2;ratioP2;P2;SDS_P1;SDS_P2;PMS_P1;PMS_P2;Temp;Humidity;BMP_temperature;BMP_pressure;BME280_temperature;BME280_humidity;BME280_pressure;Samples;Min_cycle;Max_cycle;Signal;HPM_P1;HPM_P2
2023/04/20 00:00:55;;;;;;;10.23;3.38;;;;;;;;;;5015369;28;20022;-61
2023/04/20 00:03:21;;;;;;;5.53;3.05;;;;;;;;;;5022412;28;20188;-62
2023/04/20 00:05:48;;;;;;;6.20;3.10;;;;;;;;;;5016466;28;20206;-61
2023/04/20 00:08:16;;;;;;;5.43;3.20;;;;;;;;;;5028765;28;20105;-61
2023/04/20 00:10:42;;;;;;;5.10;2.95;;;;;;;;;;5026546;28;20137;-61
2023/04/20 00:13:08;;;;;;;6.20;3.05;;;;;;;;;;5024020;28;20037;-62
2023/04/20 00:15:33;;;;;;;7.15;3.13;;;;;;;;;;5017189;28;20038;-60
2023/04/20 00:17:58;;;;;;;5.47;3.05;;;;;;;;;;5012957;28;20096;-60
2023/04/20 00:20:24;;;;;;;5.15;2.90;;;;;;;;;;5019004;28;20042;-61
2023/04/20 00:22:50;;;;;;;5.78;3.05;;;;;;;;;;5011223;28;20105;-61
2023/04/20 00:25:15;;;;;;;7.50;3.03;;;;;;;;;;5013230;28;20376;-62
2023/04/20 00:27:40;;;;;;;7.97;3.05;;;;;;;;;;5014009;28;20084;-62
2023/04/20 00:30:07;;;;;;;7.72;3.03;;;;;;;;;;5011697;28;20033;-62
2023/04/20 00:32:32;;;;;;;6.90;3.08;;;;;;;;;;5015566;28;20112;-62
2023/04/20 00:34:58;;;;;;;7.63;3.10;;;;;;;;;;5024716;28;20116;-61
2023/04/20 00:37:24;;;;;;;7.35;3.20;;;;;;;;;;5014329;28;20060;-61
2023/04/20 00:39:50;;;;;;;8.80;2.85;;;;;;;;;;5024014;28;20030;-61
2023/04/20 00:42:15;;;;;;;5.30;3.50;;;;;;;;;;5011485;28;20056;-61
2023/04/20 00:44:41;;;;;;;7.13;2.97;;;;;;;;;;5012086;28;20084;-61
2023/04/20 00:47:06;;;;;;;6.68;3.13;;;;;;;;;;5019667;28;20072;-61
2023/04/20 00:49:32;;;;;;;5.60;2.90;;;;;;;;;;5023031;28;20026;-61
2023/04/20 00:51:58;;;;;;;6.18;3.10;;;;;;;;;;5007517;28;20025;-62
2023/04/20 00:54:25;;;;;;;8.15;2.95;;;;;;;;;;5029485;28;20468;-61
2023/04/20 00:56:51;;;;;;;5.00;2.80;;;;;;;;;;5022008;28;20220;-62
2023/04/20 00:59:16;;;;;;;7.43;3.20;;;;;;;;;;5011321;28;20037;-61
2023/04/20 01:01:42;;;;;;;7.10;3.00;;;;;;;;;;5025122;28;20091;-61
2023/04/20 01:04:08;;;;;;;9.35;3.10;;;;;;;;;;5014232;28;20033;-62
2023/04/20 01:06:33;;;;;;;11.52;3.00;;;;;;;;;;5024520;28;20480;-61
2023/04/20 01:08:59;;;;;;;4.93;2.83;;;;;;;;;;5014750;28;20120;-61
2023/04/20 01:11:24;;;;;;;7.60;2.95;;;;;;;;;;5012209;28;20038;-61
2023/04/20 01:13:50;;;;;;;7.18;3.00;;;;;;;;;;5010925;28;20037;-61
2023/04/20 01:16:15;;;;;;;8.40;2.92;;;;;;;;;;5011023;28;20061;-61
2023/04/20 01:18:43;;;;;;;6.82;2.72;;;;;;;;;;5010825;28;20038;-61
2023/04/20 01:21:09;;;;;;;5.45;2.70;;;;;;;;;;5030406;28;20025;-61
2023/04/20 01:23:35;;;;;;;7.03;3.00;;;;;;;;;;5042623;28;20357;-61
2023/04/20 01:26:08;;;;;;;10.02;3.28;;;;;;;;;;5030108;28;20490;-61
2023/04/20 01:28:34;;;;;;;4.95;2.80;;;;;;;;;;5029400;28;20037;-61
2023/04/20 01:30:59;;;;;;;5.88;2.88;;;;;;;;;;5031228;28;20083;-62
2023/04/20 01:33:25;;;;;;;5.20;2.75;;;;;;;;;;5030703;28;20067;-61
2023/04/20 01:35:51;;;;;;;6.82;3.10;;;;;;;;;;5027987;28;20040;-61
2023/04/20 01:38:18;;;;;;;6.18;3.08;;;;;;;;;;5013841;28;20132;-61
2023/04/20 01:40:44;;;;;;;4.57;2.60;;;;;;;;;;5028599;28;20033;-61
2023/04/20 01:43:09;;;;;;;6.30;3.00;;;;;;;;;;5027062;28;20136;-61
2023/04/20 01:45:35;;;;;;;6.30;2.83;;;;;;;;;;5030036;28;20079;-61
2023/04/20 01:48:00;;;;;;;7.57;2.92;;;;;;;;;;5010154;28;20041;-61
2023/04/20 01:50:26;;;;;;;6.40;2.72;;;;;;;;;;5012977;28;20060;-63
2023/04/20 01:52:51;;;;;;;7.10;3.53;;;;;;;;;;5011593;28;20033;-62
2023/04/20 01:55:17;;;;;;;7.03;2.90;;;;;;;;;;5030534;28;20030;-62
2023/04/20 01:57:43;;;;;;;6.18;3.03;;;;;;;;;;5016529;28;20041;-62
2023/04/20 02:00:10;;;;;;;7.00;3.05;;;;;;;;;;5031295;28;20041;-62
2023/04/20 02:02:35;;;;;;;5.88;3.00;;;;;;;;;;5010290;28;20084;-61
2023/04/20 02:05:01;;;;;;;6.80;2.90;;;;;;;;;;5010943;28;20037;-61
2023/04/20 02:07:26;;;;;;;9.07;3.40;;;;;;;;;;5027250;28;20021;-61
2023/04/20 02:09:51;;;;;;;5.03;2.85;;;;;;;;;;5027928;28;20041;-61
2023/04/20 02:12:17;;;;;;;8.75;3.35;;;;;;;;;;5026912;28;20080;-61
2023/04/20 02:14:42;;;;;;;8.10;3.10;;;;;;;;;;5027491;28;20037;-61
2023/04/20 02:17:08;;;;;;;6.53;3.30;;;;;;;;;;5018878;28;20424;-62
2023/04/20 02:19:33;;;;;;;5.28;3.15;;;;;;;;;;5017002;28;20480;-62
2023/04/20 02:21:59;;;;;;;5.97;3.20;;;;;;;;;;5008890;28;20048;-62
2023/04/20 02:24:24;;;;;;;5.95;3.30;;;;;;;;;;5020869;28;20033;-61
2023/04/20 02:26:49;;;;;;;5.80;3.10;;;;;;;;;;5026099;28;20483;-61
2023/04/20 02:29:15;;;;;;;5.60;3.20;;;;;;;;;;5025889;28;20037;-63
2023/04/20 02:31:40;;;;;;;6.60;3.20;;;;;;;;;;5013644;28;20034;-63
2023/04/20 02:34:08;;;;;;;9.15;3.58;;;;;;;;;;5030036;28;20033;-62
2023/04/20 02:36:34;;;;;;;8.73;3.53;;;;;;;;;;5026563;28;20084;-62
2023/04/20 02:38:59;;;;;;;6.00;3.42;;;;;;;;;;5021024;28;20045;-62
2023/04/20 02:41:25;;;;;;;8.75;3.80;;;;;;;;;;5022855;28;20036;-62
2023/04/20 02:43:50;;;;;;;8.50;3.58;;;;;;;;;;5031822;28;20038;-62
2023/04/20 02:46:16;;;;;;;9.85;3.38;;;;;;;;;;5032449;28;20045;-62
2023/04/20 02:48:42;;;;;;;6.95;3.58;;;;;;;;;;5028194;28;20133;-62
2023/04/20 02:51:07;;;;;;;5.90;3.40;;;;;;;;;;5021567;28;20471;-62
2023/04/20 02:53:33;;;;;;;5.70;3.67;;;;;;;;;;5021638;28;20037;-62
2023/04/20 02:55:59;;;;;;;7.43;4.10;;;;;;;;;;5015405;28;20492;-62
2023/04/20 02:58:25;;;;;;;6.18;3.75;;;;;;;;;;5019516;28;20488;-62
2023/04/20 03:00:50;;;;;;;9.18;4.20;;;;;;;;;;5025772;28;20030;-63
2023/04/20 03:03:17;;;;;;;6.80;3.83;;;;;;;;;;5023532;28;20108;-62
2023/04/20 03:05:42;;;;;;;8.57;3.80;;;;;;;;;;5022066;28;20084;-62
2023/04/20 03:08:08;;;;;;;7.78;4.10;;;;;;;;;;5018757;28;20026;-62
2023/04/20 03:10:33;;;;;;;7.13;4.50;;;;;;;;;;5014969;28;20515;-61
2023/04/20 03:12:58;;;;;;;11.23;4.20;;;;;;;;;;5028165;28;20257;-62
2023/04/20 03:15:24;;;;;;;8.80;4.18;;;;;;;;;;5026762;28;20029;-61
2023/04/20 03:17:50;;;;;;;8.23;4.30;;;;;;;;;;5014589;28;20030;-63
2023/04/20 03:20:15;;;;;;;6.57;4.20;;;;;;;;;;5025202;28;20463;-62
2023/04/20 03:22:41;;;;;;;7.40;3.90;;;;;;;;;;5021039;28;20065;-62
2023/04/20 03:25:07;;;;;;;7.15;4.05;;;;;;;;;;5018781;28;20438;-62
2023/04/20 03:27:33;;;;;;;7.38;4.05;;;;;;;;;;5019555;28;20025;-66
2023/04/20 03:29:59;;;;;;;8.15;4.50;;;;;;;;;;5023040;28;20433;-66
2023/04/20 03:32:25;;;;;;;8.30;4.15;;;;;;;;;;5022893;28;20460;-65
2023/04/20 03:34:50;;;;;;;7.75;4.45;;;;;;;;;;5018097;28;20040;-65
2023/04/20 03:37:16;;;;;;;6.28;3.92;;;;;;;;;;5026702;28;20139;-65
2023/04/20 03:39:42;;;;;;;8.43;4.00;;;;;;;;;;5028122;28;20407;-65
2023/04/20 03:42:08;;;;;;;8.38;3.83;;;;;;;;;;5019461;28;20085;-64
2023/04/20 03:44:33;;;;;;;8.35;4.03;;;;;;;;;;5017879;28;20137;-65
2023/04/20 03:46:59;;;;;;;7.15;4.18;;;;;;;;;;5013240;28;20088;-64
2023/04/20 03:49:24;;;;;;;9.48;3.90;;;;;;;;;;5024643;28;20380;-64
2023/04/20 03:51:50;;;;;;;11.90;4.10;;;;;;;;;;5032708;28;20029;-68
2023/04/20 03:54:16;;;;;;;8.00;3.90;;;;;;;;;;5023676;28;20038;-64
2023/04/20 03:56:43;;;;;;;12.20;4.15;;;;;;;;;;5027627;28;20121;-64
2023/04/20 03:59:08;;;;;;;7.00;4.05;;;;;;;;;;5012916;28;20036;-65
2023/04/20 04:01:36;;;;;;;8.30;3.97;;;;;;;;;;5011619;28;20041;-64
2023/04/20 04:04:01;;;;;;;9.02;4.55;;;;;;;;;;5019459;28;20518;-64
2023/04/20 04:06:27;;;;;;;7.40;3.70;;;;;;;;;;5023123;28;20029;-65
2023/04/20 04:08:52;;;;;;;9.27;4.25;;;;;;;;;;5032215;28;20430;-64
2023/04/20 04:11:17;;;;;;;6.72;3.90;;;;;;;;;;5028602;28;20439;-64
2023/04/20 04:13:43;;;;;;;8.73;4.28;;;;;;;;;;5028662;28;20077;-64
2023/04/20 04:16:08;;;;;;;8.65;3.92;;;;;;;;;;5025069;28;20030;-65
2023/04/20 04:18:35;;;;;;;8.50;4.00;;;;;;;;;;5013519;28;20069;-66
2023/04/20 04:21:01;;;;;;;6.93;4.00;;;;;;;;;;5012777;28;20053;-65
2023/04/20 04:23:26;;;;;;;7.85;3.72;;;;;;;;;;5015843;28;20123;-65
2023/04/20 04:25:52;;;;;;;6.70;4.07;;;;;;;;;;5026434;28;20379;-66
2023/04/20 04:28:18;;;;;;;7.55;3.92;;;;;;;;;;5014565;28;20033;-65
2023/04/20 04:30:44;;;;;;;9.60;4.07;;;;;;;;;;5031199;28;20037;-66
2023/04/20 04:33:13;;;;;;;7.35;4.10;;;;;;;;;;5028746;28;20112;-64
2023/04/20 04:35:40;;;;;;;7.13;4.03;;;;;;;;;;5024283;28;20030;-67
2023/04/20 04:38:05;;;;;;;6.75;4.15;;;;;;;;;;5012394;28;20128;-67
2023/04/20 04:40:32;;;;;;;10.23;4.18;;;;;;;;;;5012412;28;20168;-66
2023/04/20 04:42:59;;;;;;;7.25;4.00;;;;;;;;;;5009884;28;20044;-64
2023/04/20 04:45:24;;;;;;;7.13;4.22;;;;;;;;;;5011899;28;20503;-64
2023/04/20 04:47:52;;;;;;;7.32;4.18;;;;;;;;;;5029902;28;20033;-65
2023/04/20 04:50:18;;;;;;;8.80;4.70;;;;;;;;;;5031518;28;20021;-65
2023/04/20 04:52:44;;;;;;;7.97;4.70;;;;;;;;;;5014662;28;20380;-65
2023/04/20 04:55:10;;;;;;;6.50;4.03;;;;;;;;;;5024402;28;20392;-65
2023/04/20 04:57:37;;;;;;;5.65;3.72;;;;;;;;;;5013062;28;20038;-64
2023/04/20 05:00:08;;;;;;;8.52;4.30;;;;;;;;;;5011221;28;20060;-64
2023/04/20 05:02:33;;;;;;;9.55;4.50;;;;;;;;;;5011964;28;20038;-64
2023/04/20 05:04:59;;;;;;;8.73;4.30;;;;;;;;;;5011212;28;20084;-64
2023/04/20 05:07:25;;;;;;;6.57;4.13;;;;;;;;;;5011582;28;20446;-64
2023/04/20 05:09:50;;;;;;;7.15;4.07;;;;;;;;;;5028177;28;20029;-64
2023/04/20 05:12:15;;;;;;;8.00;4.22;;;;;;;;;;5030787;28;20029;-65
2023/04/20 05:14:41;;;;;;;9.48;4.53;;;;;;;;;;5031378;28;20037;-65
2023/04/20 05:17:06;;;;;;;11.10;4.50;;;;;;;;;;5028382;28;20594;-64
2023/04/20 05:19:32;;;;;;;9.05;4.80;;;;;;;;;;5028726;28;20033;-65
2023/04/20 05:21:57;;;;;;;9.10;4.60;;;;;;;;;;5019068;28;20049;-67
2023/04/20 05:24:23;;;;;;;12.18;4.32;;;;;;;;;;5017540;28;20040;-66
2023/04/20 05:26:48;;;;;;;7.68;4.20;;;;;;;;;;5022525;28;20034;-65
2023/04/20 05:29:15;;;;;;;7.78;4.30;;;;;;;;;;5012491;28;20041;-67
2023/04/20 05:31:40;;;;;;;9.23;4.53;;;;;;;;;;5012416;28;20128;-65
2023/04/20 05:34:05;;;;;;;8.40;4.50;;;;;;;;;;5021596;28;20124;-66
2023/04/20 05:36:32;;;;;;;7.95;4.55;;;;;;;;;;5030579;28;20077;-66
2023/04/20 05:38:57;;;;;;;7.80;4.55;;;;;;;;;;5022786;28;20025;-64
2023/04/20 05:41:26;;;;;;;8.38;4.47;;;;;;;;;;5026785;28;20130;-65
2023/04/20 05:43:53;;;;;;;9.73;4.57;;;;;;;;;;5025436;28;20149;-64
2023/04/20 05:46:18;;;;;;;10.02;4.53;;;;;;;;;;5011743;28;20034;-65
2023/04/20 05:48:43;;;;;;;9.75;4.60;;;;;;;;;;5026116;28;20417;-65
2023/04/20 05:51:09;;;;;;;8.23;4.40;;;;;;;;;;5021531;28;20712;-66
2023/04/20 05:53:34;;;;;;;10.57;4.47;;;;;;;;;;5030159;28;20030;-65
2023/04/20 05:55:59;;;;;;;6.50;4.32;;;;;;;;;;5027268;28;20096;-66
2023/04/20 05:58:26;;;;;;;7.85;4.57;;;;;;;;;;5024993;28;20088;-65
2023/04/20 06:00:51;;;;;;;9.50;5.07;;;;;;;;;;5018504;28;20037;-64
2023/04/20 06:03:16;;;;;;;9.65;4.57;;;;;;;;;;5021451;28;20469;-66
2023/04/20 06:05:42;;;;;;;8.30;5.03;;;;;;;;;;5017475;28;20037;-67
2023/04/20 06:08:07;;;;;;;7.32;4.53;;;;;;;;;;5027191;28;20387;-65
2023/04/20 06:10:33;;;;;;;7.75;4.78;;;;;;;;;;5032410;28;20434;-65
2023/04/20 06:12:59;;;;;;;10.13;5.18;;;;;;;;;;5033163;28;20450;-65
2023/04/20 06:15:24;;;;;;;12.00;5.32;;;;;;;;;;5025603;28;20432;-64
2023/04/20 06:17:50;;;;;;;10.95;5.60;;;;;;;;;;5014369;28;20456;-64
2023/04/20 06:20:15;;;;;;;11.30;5.72;;;;;;;;;;5030604;28;20033;-65
2023/04/20 06:22:45;;;;;;;12.02;5.68;;;;;;;;;;5018569;28;20057;-65
2023/04/20 06:25:12;;;;;;;10.60;5.70;;;;;;;;;;5013905;28;20037;-65
2023/04/20 06:27:38;;;;;;;10.73;5.57;;;;;;;;;;5024520;28;20278;-65
2023/04/20 06:30:04;;;;;;;8.38;5.10;;;;;;;;;;5034045;28;20025;-65
2023/04/20 06:32:29;;;;;;;12.98;5.13;;;;;;;;;;5017713;28;20060;-64
2023/04/20 06:34:55;;;;;;;8.75;5.32;;;;;;;;;;5024621;28;20116;-64
2023/04/20 06:37:20;;;;;;;13.13;5.57;;;;;;;;;;5014613;28;20049;-64
2023/04/20 06:39:46;;;;;;;7.80;5.18;;;;;;;;;;5014735;28;20033;-64
2023/04/20 06:42:12;;;;;;;10.05;5.05;;;;;;;;;;5018562;28;20026;-64
2023/04/20 06:44:38;;;;;;;10.43;5.65;;;;;;;;;;5021585;28;20033;-65
2023/04/20 06:47:03;;;;;;;11.63;5.47;;;;;;;;;;5022232;28;20038;-65
2023/04/20 06:49:29;;;;;;;10.35;5.43;;;;;;;;;;5014807;28;20503;-64
2023/04/20 06:51:54;;;;;;;9.50;5.38;;;;;;;;;;5021914;28;20033;-64
2023/04/20 06:54:20;;;;;;;8.57;5.50;;;;;;;;;;5019512;28;20373;-65
2023/04/20 06:56:45;;;;;;;8.02;5.28;;;;;;;;;;5019228;28;20063;-65
2023/04/20 06:59:10;;;;;;;8.25;5.43;;;;;;;;;;5013649;28;20099;-65
2023/04/20 07:01:36;;;;;;;7.85;4.63;;;;;;;;;;5020868;28;20522;-66
2023/04/20 07:04:01;;;;;;;8.10;5.28;;;;;;;;;;5032192;28;20498;-65
2023/04/20 07:06:27;;;;;;;11.25;5.20;;;;;;;;;;5020777;28;20034;-64
2023/04/20 07:08:52;;;;;;;9.30;4.70;;;;;;;;;;5013062;28;20065;-63
2023/04/20 07:11:18;;;;;;;8.32;5.18;;;;;;;;;;5013814;28;20060;-64
2023/04/20 07:13:43;;;;;;;10.68;4.78;;;;;;;;;;5013442;28;20033;-66
2023/04/20 07:16:09;;;;;;;9.40;5.68;;;;;;;;;;5013410;28;20083;-65
2023/04/20 07:18:35;;;;;;;9.77;5.50;;;;;;;;;;5018097;28;20468;-66
2023/04/20 07:21:00;;;;;;;10.38;5.10;;;;;;;;;;5011571;28;20033;-65
2023/04/20 07:23:26;;;;;;;9.98;5.00;;;;;;;;;;5013819;28;20033;-65
2023/04/20 07:25:51;;;;;;;8.68;5.10;;;;;;;;;;5013523;28;20034;-66
2023/04/20 07:28:17;;;;;;;10.20;4.90;;;;;;;;;;5025922;28;20037;-66
2023/04/20 07:30:42;;;;;;;9.75;5.30;;;;;;;;;;5031170;28;20464;-65
2023/04/20 07:33:08;;;;;;;8.85;4.88;;;;;;;;;;5012942;28;20072;-65
2023/04/20 07:35:33;;;;;;;11.52;5.65;;;;;;;;;;5016856;28;20037;-66
2023/04/20 07:37:59;;;;;;;8.63;5.20;;;;;;;;;;5020977;28;20058;-65
2023/04/20 07:40:24;;;;;;;7.88;5.30;;;;;;;;;;5028367;28;20391;-65
2023/04/20 07:42:50;;;;;;;7.90;4.95;;;;;;;;;;5025915;28;20038;-66
2023/04/20 07:45:15;;;;;;;8.77;5.03;;;;;;;;;;5012799;28;20041;-65
2023/04/20 07:47:43;;;;;;;7.40;5.05;;;;;;;;;;5020414;28;20037;-64
2023/04/20 07:50:09;;;;;;;9.15;5.55;;;;;;;;;;5021071;28;20042;-64
2023/04/20 07:52:34;;;;;;;10.10;5.57;;;;;;;;;;5022240;28;20030;-64
2023/04/20 07:55:00;;;;;;;9.70;5.80;;;;;;;;;;5012277;28;20117;-66
2023/04/20 07:57:26;;;;;;;9.70;5.93;;;;;;;;;;5013302;28;20105;-65
2023/04/20 07:59:51;;;;;;;9.85;5.43;;;;;;;;;;5013478;28;20036;-65
2023/04/20 08:02:17;;;;;;;13.98;5.93;;;;;;;;;;5011690;28;20073;-65
2023/04/20 08:04:45;;;;;;;9.95;5.80;;;;;;;;;;5026974;28;20040;-65
2023/04/20 08:07:11;;;;;;;8.52;5.82;;;;;;;;;;5028138;28;20092;-65
2023/04/20 08:09:37;;;;;;;11.30;5.72;;;;;;;;;;5013661;28;20432;-65
2023/04/20 08:12:03;;;;;;;10.38;5.97;;;;;;;;;;5013320;28;20041;-65
2023/04/20 08:14:29;;;;;;;8.48;5.40;;;;;;;;;;5028815;28;20037;-66
2023/04/20 08:16:54;;;;;;;11.50;5.63;;;;;;;;;;5013294;28;20095;-65
2023/04/20 08:19:19;;;;;;;8.48;5.90;;;;;;;;;;5015634;28;20057;-65
2023/04/20 08:21:45;;;;;;;11.70;6.10;;;;;;;;;;5011860;28;20030;-66
2023/04/20 08:24:12;;;;;;;10.02;5.70;;;;;;;;;;5013722;28;20030;-65
2023/04/20 08:26:38;;;;;;;9.02;5.90;;;;;;;;;;5031931;28;20040;-66
2023/04/20 08:29:04;;;;;;;10.40;6.00;;;;;;;;;;5026858;28;20061;-64
2023/04/20 08:31:29;;;;;;;10.40;5.57;;;;;;;;;;5031352;28;20030;-65
2023/04/20 08:33:55;;;;;;;9.95;6.10;;;;;;;;;;5039131;28;20028;-65
2023/04/20 08:36:20;;;;;;;11.15;6.32;;;;;;;;;;5051297;28;20278;-64
2023/04/20 08:38:56;;;;;;;9.23;5.90;;;;;;;;;;5052504;28;20119;-64
2023/04/20 08:41:21;;;;;;;12.73;6.45;;;;;;;;;;5051465;28;20375;-65
2023/04/20 08:43:48;;;;;;;11.18;6.50;;;;;;;;;;5048155;28;20029;-66
2023/04/20 08:46:14;;;;;;;9.88;6.05;;;;;;;;;;5039059;28;20035;-66
2023/04/20 08:48:42;;;;;;;10.10;6.03;;;;;;;;;;5034147;28;20033;-65
2023/04/20 08:51:08;;;;;;;11.20;6.43;;;;;;;;;;5031533;28;20460;-65
2023/04/20 08:53:33;;;;;;;10.23;6.10;;;;;;;;;;5032050;28;20044;-65
2023/04/20 08:55:59;;;;;;;11.48;6.75;;;;;;;;;;5031887;28;20033;-64
2023/04/20 08:58:28;;;;;;;10.82;6.60;;;;;;;;;;5031440;28;20033;-65
2023/04/20 09:00:54;;;;;;;11.00;6.72;;;;;;;;;;5029096;28;20140;-65
2023/04/20 09:03:34;;;;;;;13.38;6.88;;;;;;;;;;5012115;28;20028;-65
2023/04/20 09:06:00;;;;;;;10.88;6.35;;;;;;;;;;5027617;28;20040;-65
2023/04/20 09:08:37;;;;;;;12.90;6.90;;;;;;;;;;5023083;28;20395;-66
2023/04/20 09:11:02;;;;;;;10.45;6.75;;;;;;;;;;5010774;28;20123;-64
2023/04/20 09:13:28;;;;;;;12.13;6.97;;;;;;;;;;5012047;28;20120;-66
2023/04/20 09:15:53;;;;;;;11.68;6.97;;;;;;;;;;5011595;28;20034;-66
2023/04/20 09:18:19;;;;;;;12.60;7.45;;;;;;;;;;5019172;28;20487;-66
2023/04/20 09:20:45;;;;;;;11.70;7.63;;;;;;;;;;5016740;28;20120;-66
2023/04/20 09:23:11;;;;;;;12.98;8.35;;;;;;;;;;5020464;28;20042;-66
2023/04/20 09:25:39;;;;;;;12.90;8.05;;;;;;;;;;5011467;28;20488;-64
2023/04/20 09:28:05;;;;;;;16.17;9.10;;;;;;;;;;5010534;28;20033;-64
2023/04/20 09:30:57;;;;;;;12.10;7.00;;;;;;;;;;5022648;28;20047;-63
2023/04/20 09:33:27;;;;;;;10.95;5.95;;;;;;;;;;5014862;28;20037;-65
2023/04/20 09:36:03;;;;;;;10.05;6.38;;;;;;;;;;5024578;28;20037;-63
2023/04/20 09:38:29;;;;;;;9.95;5.93;;;;;;;;;;5024435;28;20041;-65
2023/04/20 09:40:59;;;;;;;8.80;5.65;;;;;;;;;;5011684;28;20068;-65
2023/04/20 09:43:26;;;;;;;10.27;6.30;;;;;;;;;;5011295;28;20029;-64
2023/04/20 09:45:53;;;;;;;9.57;5.80;;;;;;;;;;5024229;28;20048;-65
2023/04/20 09:48:20;;;;;;;9.68;5.93;;;;;;;;;;5025062;28;20441;-65
2023/04/20 09:50:46;;;;;;;9.52;5.75;;;;;;;;;;5012424;28;20503;-65
2023/04/20 09:53:14;;;;;;;10.30;5.97;;;;;;;;;;5030725;28;20045;-66
2023/04/20 09:55:48;;;;;;;11.20;6.80;;;;;;;;;;5020306;28;20484;-65
2023/04/20 09:58:13;;;;;;;10.60;6.68;;;;;;;;;;5010402;28;20096;-65
2023/04/20 10:00:38;;;;;;;9.60;6.88;;;;;;;;;;5011153;28;20112;-64
2023/04/20 10:03:05;;;;;;;11.98;8.02;;;;;;;;;;5009215;28;20033;-62
2023/04/20 10:05:38;;;;;;;11.82;7.25;;;;;;;;;;5011322;28;20037;-64
2023/04/20 10:08:04;;;;;;;11.35;7.55;;;;;;;;;;5028119;28;20045;-62
2023/04/20 10:10:30;;;;;;;12.40;7.95;;;;;;;;;;5028391;28;20026;-64
2023/04/20 10:12:58;;;;;;;13.52;7.60;;;;;;;;;;5015289;28;20041;-64
2023/04/20 10:15:35;;;;;;;12.63;7.97;;;;;;;;;;5010020;28;20708;-64
2023/04/20 10:18:01;;;;;;;11.10;7.72;;;;;;;;;;5021392;28;20480;-65
2023/04/20 10:20:27;;;;;;;12.00;7.43;;;;;;;;;;5025169;28;20046;-64
2023/04/20 10:23:05;;;;;;;10.98;7.22;;;;;;;;;;5011548;28;20029;-63
2023/04/20 10:25:30;;;;;;;10.95;7.18;;;;;;;;;;5010586;28;20030;-64
2023/04/20 10:27:58;;;;;;;11.73;7.93;;;;;;;;;;5018771;28;20428;-65
2023/04/20 10:30:25;;;;;;;11.88;8.20;;;;;;;;;;5010442;28;20030;-64
2023/04/20 10:33:09;;;;;;;10.45;7.50;;;;;;;;;;5011264;28;20042;-66
2023/04/20 10:35:53;;;;;;;10.52;7.38;;;;;;;;;;5011138;28;20038;-64
2023/04/20 10:38:39;;;;;;;10.05;6.78;;;;;;;;;;5010357;28;20042;-65
2023/04/20 10:41:06;;;;;;;10.32;6.78;;;;;;;;;;5010922;28;20042;-65
2023/04/20 10:43:34;;;;;;;9.38;6.68;;;;;;;;;;5030667;28;20026;-65
2023/04/20 10:45:59;;;;;;;9.82;6.32;;;;;;;;;;5015987;28;20099;-65
2023/04/20 10:48:25;;;;;;;7.60;5.60;;;;;;;;;;5029025;28;20606;-64
2023/04/20 10:50:50;;;;;;;7.88;5.32;;;;;;;;;;5021993;28;20030;-64
2023/04/20 10:53:20;;;;;;;7.68;5.18;;;;;;;;;;5030977;28;20468;-65
2023/04/20 10:55:46;;;;;;;8.50;5.20;;;;;;;;;;5031964;28;20037;-64
2023/04/20 10:58:22;;;;;;;9.38;5.85;;;;;;;;;;5016025;28;20022;-64
2023/04/20 11:01:01;;;;;;;7.40;5.53;;;;;;;;;;5028359;28;20040;-65
2023/04/20 11:03:28;;;;;;;7.53;5.35;;;;;;;;;;5013428;28;20045;-66
2023/04/20 11:05:53;;;;;;;7.65;5.63;;;;;;;;;;5023306;28;20076;-65
2023/04/20 11:08:19;;;;;;;7.53;5.35;;;;;;;;;;5015934;28;20038;-65
2023/04/20 11:10:44;;;;;;;8.35;5.65;;;;;;;;;;5024004;28;20092;-65
2023/04/20 11:13:24;;;;;;;10.68;5.82;;;;;;;;;;5015964;28;20095;-65
2023/04/20 11:15:49;;;;;;;7.35;5.30;;;;;;;;;;5014294;28;20029;-65
2023/04/20 11:18:15;;;;;;;9.20;5.32;;;;;;;;;;5013300;28;20045;-65
2023/04/20 11:20:51;;;;;;;7.20;5.20;;;;;;;;;;5019442;28;20033;-66
2023/04/20 11:23:18;;;;;;;7.68;5.53;;;;;;;;;;5014465;28;20392;-65
2023/04/20 11:25:54;;;;;;;7.97;5.28;;;;;;;;;;5014127;28;20533;-65
2023/04/20 11:28:19;;;;;;;9.65;5.40;;;;;;;;;;5013253;28;20121;-65
2023/04/20 11:30:45;;;;;;;7.00;4.72;;;;;;;;;;5027276;28;20113;-65
2023/04/20 11:33:12;;;;;;;6.88;4.60;;;;;;;;;;5016745;28;20041;-64
2023/04/20 11:35:40;;;;;;;7.93;5.20;;;;;;;;;;5018753;28;20041;-65
2023/04/20 11:38:06;;;;;;;6.60;5.30;;;;;;;;;;5023458;28;20178;-65
2023/04/20 11:40:32;;;;;;;6.03;4.65;;;;;;;;;;5012812;28;20041;-65
2023/04/20 11:42:58;;;;;;;7.72;5.40;;;;;;;;;;5028668;28;20045;-65
2023/04/20 11:45:24;;;;;;;6.85;5.05;;;;;;;;;;5012582;28;20388;-66
2023/04/20 11:47:51;;;;;;;7.40;5.03;;;;;;;;;;5013398;28;20038;-66
2023/04/20 11:50:17;;;;;;;9.00;5.38;;;;;;;;;;5027181;28;20379;-67
2023/04/20 11:52:42;;;;;;;6.90;4.90;;;;;;;;;;5026803;28;20469;-65
2023/04/20 11:55:09;;;;;;;6.95;4.88;;;;;;;;;;5014138;28;20487;-67
2023/04/20 11:57:35;;;;;;;9.20;5.30;;;;;;;;;;5012325;28;20096;-66
2023/04/20 12:00:00;;;;;;;8.55;5.05;;;;;;;;;;5013329;28;20510;-67
2023/04/20 12:02:25;;;;;;;8.27;5.18;;;;;;;;;;5013700;28;20033;-67
2023/04/20 12:04:51;;;;;;;7.63;5.60;;;;;;;;;;5030373;28;20439;-67
2023/04/20 12:07:16;;;;;;;7.97;5.90;;;;;;;;;;5023341;28;20384;-67
2023/04/20 12:09:42;;;;;;;9.05;5.72;;;;;;;;;;5013366;28;20029;-67
2023/04/20 12:12:07;;;;;;;10.82;5.32;;;;;;;;;;5028059;28;20396;-67
2023/04/20 12:14:33;;;;;;;7.03;5.43;;;;;;;;;;5012909;28;20038;-67
2023/04/20 12:17:02;;;;;;;7.80;5.15;;;;;;;;;;5012463;28;20084;-67
2023/04/20 12:19:28;;;;;;;7.50;5.25;;;;;;;;;;5012473;28;20056;-67
2023/04/20 12:21:53;;;;;;;9.52;4.85;;;;;;;;;;5021486;28;20033;-67
2023/04/20 12:24:19;;;;;;;7.85;5.10;;;;;;;;;;5032042;28;20025;-67
2023/04/20 12:26:44;;;;;;;8.90;5.93;;;;;;;;;;5031535;28;20033;-66
2023/04/20 12:29:10;;;;;;;9.98;6.00;;;;;;;;;;5030674;28;20116;-67
2023/04/20 12:31:35;;;;;;;8.68;6.40;;;;;;;;;;5020476;28;20558;-66
2023/04/20 12:34:01;;;;;;;8.98;6.03;;;;;;;;;;5012584;28;20121;-66
2023/04/20 12:36:27;;;;;;;9.18;6.20;;;;;;;;;;5024583;28;20049;-66
2023/04/20 12:38:54;;;;;;;6.50;5.20;;;;;;;;;;5016503;28;20044;-66
2023/04/20 12:41:23;;;;;;;8.13;5.90;;;;;;;;;;5022853;28;20108;-67
2023/04/20 12:43:49;;;;;;;11.95;6.20;;;;;;;;;;5007172;28;20037;-68
2023/04/20 12:46:15;;;;;;;10.18;6.88;;;;;;;;;;5029805;28;20109;-67
2023/04/20 12:48:40;;;;;;;9.70;6.20;;;;;;;;;;5031588;28;20112;-69
2023/04/20 12:51:06;;;;;;;9.30;6.78;;;;;;;;;;5030625;28;20108;-70
2023/04/20 12:53:32;;;;;;;11.15;6.20;;;;;;;;;;5021344;28;20469;-67
2023/04/20 12:55:58;;;;;;;8.07;6.18;;;;;;;;;;5021182;28;20067;-67
2023/04/20 12:58:23;;;;;;;9.40;6.45;;;;;;;;;;5030519;28;20168;-67
2023/04/20 13:00:49;;;;;;;8.00;6.13;;;;;;;;;;5024644;28;20104;-67
2023/04/20 13:03:14;;;;;;;7.85;6.43;;;;;;;;;;5011441;28;20489;-65
2023/04/20 13:05:40;;;;;;;10.25;6.82;;;;;;;;;;5012009;28;20036;-67
2023/04/20 13:08:05;;;;;;;8.40;6.85;;;;;;;;;;5012020;28;20037;-68
2023/04/20 13:10:30;;;;;;;9.43;7.22;;;;;;;;;;5010704;28;20052;-67
2023/04/20 13:12:56;;;;;;;14.80;7.65;;;;;;;;;;5015828;28;20029;-68
2023/04/20 13:15:22;;;;;;;10.20;7.35;;;;;;;;;;5031123;28;20613;-67
2023/04/20 13:17:47;;;;;;;11.20;7.07;;;;;;;;;;5016437;28;20048;-67
2023/04/20 13:20:13;;;;;;;9.50;7.70;;;;;;;;;;5016253;28;20044;-66
2023/04/20 13:22:38;;;;;;;10.55;7.97;;;;;;;;;;5022838;28;20112;-66
2023/04/20 13:25:05;;;;;;;10.07;7.47;;;;;;;;;;5017455;28;20057;-66
2023/04/20 13:27:31;;;;;;;10.57;7.32;;;;;;;;;;5025651;28;20048;-67
2023/04/20 13:29:58;;;;;;;13.43;7.43;;;;;;;;;;5012170;28;20088;-66
2023/04/20 13:32:24;;;;;;;11.02;7.72;;;;;;;;;;5011050;28;20040;-66
2023/04/20 13:34:50;;;;;;;13.68;8.15;;;;;;;;;;5011533;28;20109;-66
2023/04/20 13:37:15;;;;;;;11.13;8.13;;;;;;;;;;5025563;28;20454;-66
2023/04/20 13:39:41;;;;;;;11.18;8.15;;;;;;;;;;5028228;28;20041;-66
2023/04/20 13:42:06;;;;;;;11.55;8.27;;;;;;;;;;5018616;28;20452;-66
2023/04/20 13:44:32;;;;;;;12.55;7.55;;;;;;;;;;5026734;28;20069;-66
2023/04/20 13:46:57;;;;;;;12.27;7.75;;;;;;;;;;5025697;28;20049;-66
2023/04/20 13:49:23;;;;;;;11.05;8.18;;;;;;;;;;5011073;28;20033;-66
2023/04/20 13:51:49;;;;;;;10.48;7.75;;;;;;;;;;5016572;28;20033;-66
2023/04/20 13:54:14;;;;;;;9.35;7.53;;;;;;;;;;5030732;28;20057;-67
2023/04/20 13:56:39;;;;;;;9.60;7.32;;;;;;;;;;5024636;28;20440;-66
2023/04/20 13:59:05;;;;;;;10.05;6.93;;;;;;;;;;5037467;28;20476;-66
2023/04/20 14:01:30;;;;;;;9.35;7.00;;;;;;;;;;5050476;28;20091;-66
2023/04/20 14:03:56;;;;;;;11.15;7.53;;;;;;;;;;5032636;28;20108;-66
2023/04/20 14:06:22;;;;;;;8.45;6.75;;;;;;;;;;5009588;28;20061;-65
2023/04/20 14:08:47;;;;;;;8.38;6.55;;;;;;;;;;5011755;28;20038;-66
2023/04/20 14:11:13;;;;;;;9.23;6.53;;;;;;;;;;5028751;28;20036;-66
2023/04/20 14:13:40;;;;;;;8.52;6.68;;;;;;;;;;5030483;28;20044;-66
2023/04/20 14:16:13;;;;;;;8.30;6.55;;;;;;;;;;5030641;28;20040;-66
2023/04/20 14:18:38;;;;;;;10.07;6.80;;;;;;;;;;5026465;28;20036;-65
2023/04/20 14:21:04;;;;;;;9.80;6.95;;;;;;;;;;5025618;28;20037;-65
2023/04/20 14:23:30;;;;;;;9.18;6.90;;;;;;;;;;5031569;28;20026;-65
2023/04/20 14:25:55;;;;;;;9.95;7.43;;;;;;;;;;5031940;28;20061;-65
2023/04/20 14:28:21;;;;;;;9.90;7.65;;;;;;;;;;5027127;28;20371;-65
2023/04/20 14:30:46;;;;;;;10.07;7.20;;;;;;;;;;5014955;28;20383;-65
2023/04/20 14:33:12;;;;;;;10.52;7.05;;;;;;;;;;5015077;28;20029;-65